sensor_id;sensor_type;location;lat;lon;timestamp;temperature;humidity
18456;DHT22;9357;49.900;8.208;2023-03-21T00:00:22;10.40;99.90
18456;DHT22;9357;49.900;8.208;2023-03-21T00:01:54;10.30;99.90
18456;DHT22;9357;49.900;8.208;2023-03-21T00:03:27;10.30;99.90
18456;DHT22;9357;49.900;8.208;2023-03-21T00:05:00;10.30;99.90
18456;DHT22;9357;49.900;8.208;2023-03-21T00:06:45;10.30;99.90
18456;DHT22;9357;49.900;8.208;2023-03-21T00:08:18;10.30;99.90
18456;DHT22;9357;49.900;8.208;2023-03-21T00:09:52;10.30;99.90
18456;DHT22;9357;49.900;8.208;2023-03-21T00:11:36;10.30;99.90
18456;DHT22;9357;49.900;8.208;2023-03-21T00:13:09;10.20;99.90
18456;DHT22;9357;49.900;8.208;2023-03-21T00:14:43;10.30;99.90
18456;DHT22;9357;49.900;8.208;2023-03-21T00:16:18;10.20;99.90
18456;DHT22;9357;49.900;8.208;2023-03-21T00:18:00;10.20;99.90
18456;DHT22;9357;49.900;8.208;2023-03-21T00:19:34;10.20;99.90
18456;DHT22;9357;49.900;8.208;2023-03-21T00:21:11;10.20;99.90
18456;DHT22;9357;49.900;8.208;2023-03-21T00:23:05;10.20;99.90
18456;DHT22;9357;49.900;8.208;2023-03-21T00:24:38;10.20;99.90
18456;DHT22;9357;49.900;8.208;2023-03-21T00:26:12;10.10;99.90
18456;DHT22;9357;49.900;8.208;2023-03-21T00:27:46;10.10;99.90
18456;DHT22;9357;49.900;8.208;2023-03-21T00:29:38;10.10;99.90
18456;DHT22;9357;49.900;8.208;2023-03-21T00:31:10;10.10;99.90
18456;DHT22;9357;49.900;8.208;2023-03-21T00:32:42;10.10;99.90
18456;DHT22;9357;49.900;8.208;2023-03-21T00:34:27;10.10;99.90
18456;DHT22;9357;49.900;8.208;2023-03-21T00:36:19;10.10;99.90
18456;DHT22;9357;49.900;8.208;2023-03-21T00:37:52;10.10;99.90
18456;DHT22;9357;49.900;8.208;2023-03-21T00:39:24;10.10;99.90
18456;DHT22;9357;49.900;8.208;2023-03-21T00:40:57;10.10;99.90
18456;DHT22;9357;49.900;8.208;2023-03-21T00:42:38;10.10;99.90
18456;DHT22;9357;49.900;8.208;2023-03-21T00:44:12;10.10;99.90
18456;DHT22;9357;49.900;8.208;2023-03-21T00:45:46;10.10;99.90
18456;DHT22;9357;49.900;8.208;2023-03-21T00:47:19;10.10;99.90
18456;DHT22;9357;49.900;8.208;2023-03-21T00:48:51;10.10;99.90
18456;DHT22;9357;49.900;8.208;2023-03-21T00:50:24;10.10;99.90
18456;DHT22;9357;49.900;8.208;2023-03-21T00:51:57;10.10;99.90
18456;DHT22;9357;49.900;8.208;2023-03-21T00:53:47;10.00;99.90
18456;DHT22;9357;49.900;8.208;2023-03-21T00:55:20;10.00;99.90
18456;DHT22;9357;49.900;8.208;2023-03-21T00:56:52;10.00;99.90
18456;DHT22;9357;49.900;8.208;2023-03-21T00:58:25;10.00;99.90
18456;DHT22;9357;49.900;8.208;2023-03-21T00:59:59;10.00;99.90
18456;DHT22;9357;49.900;8.208;2023-03-21T01:01:32;10.00;99.90
18456;DHT22;9357;49.900;8.208;2023-03-21T01:03:06;10.00;99.90
18456;DHT22;9357;49.900;8.208;2023-03-21T01:04:54;10.00;99.90
18456;DHT22;9357;49.900;8.208;2023-03-21T01:06:27;10.00;99.90
18456;DHT22;9357;49.900;8.208;2023-03-21T01:07:59;10.00;99.90
18456;DHT22;9357;49.900;8.208;2023-03-21T01:09:41;10.00;99.90
18456;DHT22;9357;49.900;8.208;2023-03-21T01:11:16;10.00;99.90
18456;DHT22;9357;49.900;8.208;2023-03-21T01:12:49;10.00;99.90
18456;DHT22;9357;49.900;8.208;2023-03-21T01:14:22;9.90;99.90
18456;DHT22;9357;49.900;8.208;2023-03-21T01:15:56;9.90;99.90
18456;DHT22;9357;49.900;8.208;2023-03-21T01:17:28;9.90;99.90
18456;DHT22;9357;49.900;8.208;2023-03-21T01:19:01;10.00;99.90
18456;DHT22;9357;49.900;8.208;2023-03-21T01:20:39;10.00;99.90
18456;DHT22;9357;49.900;8.208;2023-03-21T01:22:11;10.00;99.90
18456;DHT22;9357;49.900;8.208;2023-03-21T01:23:44;10.00;99.90
18456;DHT22;9357;49.900;8.208;2023-03-21T01:25:17;10.00;99.90
18456;DHT22;9357;49.900;8.208;2023-03-21T01:26:53;10.00;99.90
18456;DHT22;9357;49.900;8.208;2023-03-21T01:28:27;10.00;99.90
18456;DHT22;9357;49.900;8.208;2023-03-21T01:29:59;9.90;99.90
18456;DHT22;9357;49.900;8.208;2023-03-21T01:31:34;10.00;99.90
18456;DHT22;9357;49.900;8.208;2023-03-21T01:33:07;10.00;99.90
18456;DHT22;9357;49.900;8.208;2023-03-21T01:34:39;10.00;99.90
18456;DHT22;9357;49.900;8.208;2023-03-21T01:36:14;10.00;99.90
18456;DHT22;9357;49.900;8.208;2023-03-21T01:37:46;10.00;99.90
18456;DHT22;9357;49.900;8.208;2023-03-21T01:39:20;10.00;99.90
18456;DHT22;9357;49.900;8.208;2023-03-21T01:40:53;10.00;99.90
18456;DHT22;9357;49.900;8.208;2023-03-21T01:42:26;10.00;99.90
18456;DHT22;9357;49.900;8.208;2023-03-21T01:43:59;10.00;99.90
18456;DHT22;9357;49.900;8.208;2023-03-21T01:47:42;10.00;99.90
18456;DHT22;9357;49.900;8.208;2023-03-21T01:49:17;10.00;99.90
18456;DHT22;9357;49.900;8.208;2023-03-21T01:50:52;10.00;99.90
18456;DHT22;9357;49.900;8.208;2023-03-21T01:52:27;10.00;99.90
18456;DHT22;9357;49.900;8.208;2023-03-21T01:54:11;10.00;99.90
18456;DHT22;9357;49.900;8.208;2023-03-21T01:55:46;10.00;99.90
18456;DHT22;9357;49.900;8.208;2023-03-21T01:57:21;10.00;99.90
18456;DHT22;9357;49.900;8.208;2023-03-21T01:59:16;10.00;99.90
18456;DHT22;9357;49.900;8.208;2023-03-21T02:00:52;10.00;99.90
18456;DHT22;9357;49.900;8.208;2023-03-21T02:02:28;10.00;99.90
18456;DHT22;9357;49.900;8.208;2023-03-21T02:04:04;10.00;99.90
18456;DHT22;9357;49.900;8.208;2023-03-21T02:05:52;10.10;99.90
18456;DHT22;9357;49.900;8.208;2023-03-21T02:07:28;10.00;99.90
18456;DHT22;9357;49.900;8.208;2023-03-21T02:09:05;10.00;99.90
18456;DHT22;9357;49.900;8.208;2023-03-21T02:10:40;10.00;99.90
18456;DHT22;9357;49.900;8.208;2023-03-21T02:12:14;10.00;99.90
18456;DHT22;9357;49.900;8.208;2023-03-21T02:13:49;10.00;99.90
18456;DHT22;9357;49.900;8.208;2023-03-21T02:15:31;10.00;99.90
18456;DHT22;9357;49.900;8.208;2023-03-21T02:17:11;10.00;99.90
18456;DHT22;9357;49.900;8.208;2023-03-21T02:18:51;10.00;99.90
18456;DHT22;9357;49.900;8.208;2023-03-21T02:20:50;10.00;99.90
18456;DHT22;9357;49.900;8.208;2023-03-21T02:22:50;10.00;99.90
18456;DHT22;9357;49.900;8.208;2023-03-21T02:27:09;10.00;99.90
18456;DHT22;9357;49.900;8.208;2023-03-21T02:28:46;10.00;99.90
18456;DHT22;9357;49.900;8.208;2023-03-21T02:30:37;9.90;99.90
18456;DHT22;9357;49.900;8.208;2023-03-21T02:32:34;9.90;99.90
18456;DHT22;9357;49.900;8.208;2023-03-21T02:34:30;9.90;99.90
18456;DHT22;9357;49.900;8.208;2023-03-21T02:36:17;10.00;99.90
18456;DHT22;9357;49.900;8.208;2023-03-21T02:38:03;9.90;99.90
18456;DHT22;9357;49.900;8.208;2023-03-21T02:39:43;9.90;99.90
18456;DHT22;9357;49.900;8.208;2023-03-21T02:41:23;9.90;99.90
18456;DHT22;9357;49.900;8.208;2023-03-21T02:43:06;9.90;99.90
18456;DHT22;9357;49.900;8.208;2023-03-21T02:44:57;9.90;99.90
18456;DHT22;9357;49.900;8.208;2023-03-21T02:46:36;10.00;99.90
18456;DHT22;9357;49.900;8.208;2023-03-21T02:48:22;9.90;99.90
18456;DHT22;9357;49.900;8.208;2023-03-21T02:50:10;9.90;99.90
18456;DHT22;9357;49.900;8.208;2023-03-21T02:51:45;9.90;99.90
18456;DHT22;9357;49.900;8.208;2023-03-21T02:53:24;10.00;99.90
18456;DHT22;9357;49.900;8.208;2023-03-21T02:54:59;9.90;99.90
18456;DHT22;9357;49.900;8.208;2023-03-21T02:56:32;10.00;99.90
18456;DHT22;9357;49.900;8.208;2023-03-21T02:58:07;10.00;99.90
18456;DHT22;9357;49.900;8.208;2023-03-21T02:59:44;10.00;99.90
18456;DHT22;9357;49.900;8.208;2023-03-21T03:01:27;10.00;99.90
18456;DHT22;9357;49.900;8.208;2023-03-21T03:03:00;10.00;99.90
18456;DHT22;9357;49.900;8.208;2023-03-21T03:04:43;9.90;99.90
18456;DHT22;9357;49.900;8.208;2023-03-21T03:06:18;10.00;99.90
18456;DHT22;9357;49.900;8.208;2023-03-21T03:08:22;10.00;99.90
18456;DHT22;9357;49.900;8.208;2023-03-21T03:10:23;10.00;99.90
18456;DHT22;9357;49.900;8.208;2023-03-21T03:12:04;10.00;99.90
18456;DHT22;9357;49.900;8.208;2023-03-21T03:13:52;10.00;99.90
18456;DHT22;9357;49.900;8.208;2023-03-21T03:15:35;10.00;99.90
18456;DHT22;9357;49.900;8.208;2023-03-21T03:17:19;10.00;99.90
18456;DHT22;9357;49.900;8.208;2023-03-21T03:18:55;10.00;99.90
18456;DHT22;9357;49.900;8.208;2023-03-21T03:20:34;10.00;99.90
18456;DHT22;9357;49.900;8.208;2023-03-21T03:22:13;10.00;99.90
18456;DHT22;9357;49.900;8.208;2023-03-21T03:23:50;10.00;99.90
18456;DHT22;9357;49.900;8.208;2023-03-21T03:25:27;10.00;99.90
18456;DHT22;9357;49.900;8.208;2023-03-21T03:27:16;10.00;99.90
18456;DHT22;9357;49.900;8.208;2023-03-21T03:28:52;10.00;99.90
18456;DHT22;9357;49.900;8.208;2023-03-21T03:30:27;10.00;99.90
18456;DHT22;9357;49.900;8.208;2023-03-21T03:32:15;10.00;99.90
18456;DHT22;9357;49.900;8.208;2023-03-21T03:33:51;10.00;99.90
18456;DHT22;9357;49.900;8.208;2023-03-21T03:35:25;10.00;99.90
18456;DHT22;9357;49.900;8.208;2023-03-21T03:36:59;10.00;99.90
18456;DHT22;9357;49.900;8.208;2023-03-21T03:38:36;10.00;99.90
18456;DHT22;9357;49.900;8.208;2023-03-21T03:40:14;10.00;99.90
18456;DHT22;9357;49.900;8.208;2023-03-21T03:41:50;10.00;99.90
18456;DHT22;9357;49.900;8.208;2023-03-21T03:43:46;10.00;99.90
18456;DHT22;9357;49.900;8.208;2023-03-21T03:45:25;9.90;99.90
18456;DHT22;9357;49.900;8.208;2023-03-21T03:47:02;9.90;99.90
18456;DHT22;9357;49.900;8.208;2023-03-21T03:48:41;9.90;99.90
18456;DHT22;9357;49.900;8.208;2023-03-21T03:50:21;9.80;99.90
18456;DHT22;9357;49.900;8.208;2023-03-21T03:52:00;9.80;99.90
18456;DHT22;9357;49.900;8.208;2023-03-21T03:53:36;9.70;99.90
18456;DHT22;9357;49.900;8.208;2023-03-21T03:55:12;9.70;99.90
18456;DHT22;9357;49.900;8.208;2023-03-21T03:56:46;9.70;99.90
18456;DHT22;9357;49.900;8.208;2023-03-21T03:58:18;9.70;99.90
18456;DHT22;9357;49.900;8.208;2023-03-21T03:59:55;9.70;99.90
18456;DHT22;9357;49.900;8.208;2023-03-21T04:01:27;9.60;99.90
18456;DHT22;9357;49.900;8.208;2023-03-21T04:03:00;9.60;99.90
18456;DHT22;9357;49.900;8.208;2023-03-21T04:04:33;9.60;99.90
18456;DHT22;9357;49.900;8.208;2023-03-21T04:06:08;9.50;99.90
18456;DHT22;9357;49.900;8.208;2023-03-21T04:07:41;9.50;99.90
18456;DHT22;9357;49.900;8.208;2023-03-21T04:09:14;9.50;99.90
18456;DHT22;9357;49.900;8.208;2023-03-21T04:10:53;9.50;99.90
18456;DHT22;9357;49.900;8.208;2023-03-21T04:12:26;9.40;99.90
18456;DHT22;9357;49.900;8.208;2023-03-21T04:13:59;9.40;99.90
18456;DHT22;9357;49.900;8.208;2023-03-21T04:15:32;9.40;99.90
18456;DHT22;9357;49.900;8.208;2023-03-21T04:17:04;9.40;99.90
18456;DHT22;9357;49.900;8.208;2023-03-21T04:18:37;9.40;99.90
18456;DHT22;9357;49.900;8.208;2023-03-21T04:20:10;9.40;99.90
18456;DHT22;9357;49.900;8.208;2023-03-21T04:21:57;9.40;99.90
18456;DHT22;9357;49.900;8.208;2023-03-21T04:23:29;9.50;99.90
18456;DHT22;9357;49.900;8.208;2023-03-21T04:25:03;9.50;99.90
18456;DHT22;9357;49.900;8.208;2023-03-21T04:26:37;9.50;99.90
18456;DHT22;9357;49.900;8.208;2023-03-21T04:28:10;9.50;99.90
18456;DHT22;9357;49.900;8.208;2023-03-21T04:29:43;9.60;99.90
18456;DHT22;9357;49.900;8.208;2023-03-21T04:31:16;9.60;99.90
18456;DHT22;9357;49.900;8.208;2023-03-21T04:32:56;9.60;99.90
18456;DHT22;9357;49.900;8.208;2023-03-21T04:34:31;9.60;99.90
18456;DHT22;9357;49.900;8.208;2023-03-21T04:36:05;9.60;99.90
18456;DHT22;9357;49.900;8.208;2023-03-21T04:37:39;9.60;99.90
18456;DHT22;9357;49.900;8.208;2023-03-21T04:39:13;9.60;99.90
18456;DHT22;9357;49.900;8.208;2023-03-21T04:40:45;9.60;99.90
18456;DHT22;9357;49.900;8.208;2023-03-21T04:42:19;9.70;99.90
18456;DHT22;9357;49.900;8.208;2023-03-21T04:43:52;9.70;99.90
18456;DHT22;9357;49.900;8.208;2023-03-21T04:45:26;9.70;99.90
18456;DHT22;9357;49.900;8.208;2023-03-21T04:46:58;9.70;99.90
18456;DHT22;9357;49.900;8.208;2023-03-21T04:48:31;9.70;99.90
18456;DHT22;9357;49.900;8.208;2023-03-21T04:50:04;9.70;99.90
18456;DHT22;9357;49.900;8.208;2023-03-21T04:51:38;9.70;99.90
18456;DHT22;9357;49.900;8.208;2023-03-21T04:53:11;9.70;99.90
18456;DHT22;9357;49.900;8.208;2023-03-21T04:54:44;9.70;99.90
18456;DHT22;9357;49.900;8.208;2023-03-21T04:56:17;9.70;99.90
18456;DHT22;9357;49.900;8.208;2023-03-21T04:57:51;9.70;99.90
18456;DHT22;9357;49.900;8.208;2023-03-21T04:59:24;9.70;99.90
18456;DHT22;9357;49.900;8.208;2023-03-21T05:00:57;9.70;99.90
18456;DHT22;9357;49.900;8.208;2023-03-21T05:02:29;9.70;99.90
18456;DHT22;9357;49.900;8.208;2023-03-21T05:04:03;9.70;99.90
18456;DHT22;9357;49.900;8.208;2023-03-21T05:05:36;9.70;99.90
18456;DHT22;9357;49.900;8.208;2023-03-21T05:07:09;9.70;99.90
18456;DHT22;9357;49.900;8.208;2023-03-21T05:08:42;9.70;99.90
18456;DHT22;9357;49.900;8.208;2023-03-21T05:10:15;9.70;99.90
18456;DHT22;9357;49.900;8.208;2023-03-21T05:11:49;9.70;99.90
18456;DHT22;9357;49.900;8.208;2023-03-21T05:13:22;9.70;99.90
18456;DHT22;9357;49.900;8.208;2023-03-21T05:14:55;9.70;99.90
18456;DHT22;9357;49.900;8.208;2023-03-21T05:16:28;9.70;99.90
18456;DHT22;9357;49.900;8.208;2023-03-21T05:18:01;9.70;99.90
18456;DHT22;9357;49.900;8.208;2023-03-21T05:19:41;9.70;99.90
18456;DHT22;9357;49.900;8.208;2023-03-21T05:21:14;9.80;99.90
18456;DHT22;9357;49.900;8.208;2023-03-21T05:22:48;9.80;99.90
18456;DHT22;9357;49.900;8.208;2023-03-21T05:24:22;9.80;99.90
18456;DHT22;9357;49.900;8.208;2023-03-21T05:25:54;9.80;99.90
18456;DHT22;9357;49.900;8.208;2023-03-21T05:27:27;9.80;99.90
18456;DHT22;9357;49.900;8.208;2023-03-21T05:29:07;9.80;99.90
18456;DHT22;9357;49.900;8.208;2023-03-21T05:30:40;9.80;99.90
18456;DHT22;9357;49.900;8.208;2023-03-21T05:32:13;9.80;99.90
18456;DHT22;9357;49.900;8.208;2023-03-21T05:33:46;9.80;99.90
18456;DHT22;9357;49.900;8.208;2023-03-21T05:35:19;9.80;99.90
18456;DHT22;9357;49.900;8.208;2023-03-21T05:36:52;9.80;99.90
18456;DHT22;9357;49.900;8.208;2023-03-21T05:38:24;9.80;99.90
18456;DHT22;9357;49.900;8.208;2023-03-21T05:39:57;9.80;99.90
18456;DHT22;9357;49.900;8.208;2023-03-21T05:41:30;9.80;99.90
18456;DHT22;9357;49.900;8.208;2023-03-21T05:43:03;9.70;99.90
18456;DHT22;9357;49.900;8.208;2023-03-21T05:44:37;9.70;99.90
18456;DHT22;9357;49.900;8.208;2023-03-21T05:46:11;9.70;99.90
18456;DHT22;9357;49.900;8.208;2023-03-21T05:47:44;9.70;99.90
18456;DHT22;9357;49.900;8.208;2023-03-21T05:49:16;9.60;99.90
18456;DHT22;9357;49.900;8.208;2023-03-21T05:50:49;9.60;99.90
18456;DHT22;9357;49.900;8.208;2023-03-21T05:52:22;9.60;99.90
18456;DHT22;9357;49.900;8.208;2023-03-21T05:53:55;9.60;99.90
18456;DHT22;9357;49.900;8.208;2023-03-21T05:55:28;9.60;99.90
18456;DHT22;9357;49.900;8.208;2023-03-21T05:57:01;9.70;99.90
18456;DHT22;9357;49.900;8.208;2023-03-21T05:58:34;9.70;99.90
18456;DHT22;9357;49.900;8.208;2023-03-21T06:00:09;9.70;99.90
18456;DHT22;9357;49.900;8.208;2023-03-21T06:01:42;9.70;99.90
18456;DHT22;9357;49.900;8.208;2023-03-21T06:03:16;9.70;99.90
18456;DHT22;9357;49.900;8.208;2023-03-21T06:04:49;9.70;99.90
18456;DHT22;9357;49.900;8.208;2023-03-21T06:06:22;9.70;99.90
18456;DHT22;9357;49.900;8.208;2023-03-21T06:07:55;9.80;99.90
18456;DHT22;9357;49.900;8.208;2023-03-21T06:09:27;9.80;99.90
18456;DHT22;9357;49.900;8.208;2023-03-21T06:11:00;9.80;99.90
18456;DHT22;9357;49.900;8.208;2023-03-21T06:12:33;9.80;99.90
18456;DHT22;9357;49.900;8.208;2023-03-21T06:14:06;9.80;99.90
18456;DHT22;9357;49.900;8.208;2023-03-21T06:15:40;9.90;99.90
18456;DHT22;9357;49.900;8.208;2023-03-21T06:17:13;9.90;99.90
18456;DHT22;9357;49.900;8.208;2023-03-21T06:18:46;9.90;99.90
18456;DHT22;9357;49.900;8.208;2023-03-21T06:20:19;9.90;99.90
18456;DHT22;9357;49.900;8.208;2023-03-21T06:21:52;9.90;99.90
18456;DHT22;9357;49.900;8.208;2023-03-21T06:23:24;9.90;99.90
18456;DHT22;9357;49.900;8.208;2023-03-21T06:24:57;9.90;99.90
18456;DHT22;9357;49.900;8.208;2023-03-21T06:26:30;10.00;99.90
18456;DHT22;9357;49.900;8.208;2023-03-21T06:28:03;10.00;99.90
18456;DHT22;9357;49.900;8.208;2023-03-21T06:29:35;10.00;99.90
18456;DHT22;9357;49.900;8.208;2023-03-21T06:31:10;10.00;99.90
18456;DHT22;9357;49.900;8.208;2023-03-21T06:32:44;10.00;99.90
18456;DHT22;9357;49.900;8.208;2023-03-21T06:34:17;10.10;99.90
18456;DHT22;9357;49.900;8.208;2023-03-21T06:35:50;10.00;99.90
18456;DHT22;9357;49.900;8.208;2023-03-21T06:37:24;10.10;99.90
18456;DHT22;9357;49.900;8.208;2023-03-21T06:38:57;10.10;99.90
18456;DHT22;9357;49.900;8.208;2023-03-21T06:40:29;10.10;99.90
18456;DHT22;9357;49.900;8.208;2023-03-21T06:42:02;10.10;99.90
18456;DHT22;9357;49.900;8.208;2023-03-21T06:43:35;10.20;99.90
18456;DHT22;9357;49.900;8.208;2023-03-21T06:45:08;10.20;99.90
18456;DHT22;9357;49.900;8.208;2023-03-21T06:46:42;10.20;99.90
18456;DHT22;9357;49.900;8.208;2023-03-21T06:48:15;10.30;99.90
18456;DHT22;9357;49.900;8.208;2023-03-21T06:49:48;10.30;99.90
18456;DHT22;9357;49.900;8.208;2023-03-21T06:51:22;10.30;99.90
18456;DHT22;9357;49.900;8.208;2023-03-21T06:52:54;10.40;99.90
18456;DHT22;9357;49.900;8.208;2023-03-21T06:54:29;10.40;99.90
18456;DHT22;9357;49.900;8.208;2023-03-21T06:56:03;10.40;99.90
18456;DHT22;9357;49.900;8.208;2023-03-21T06:57:34;10.40;99.90
18456;DHT22;9357;49.900;8.208;2023-03-21T06:59:07;10.50;99.90
18456;DHT22;9357;49.900;8.208;2023-03-21T07:00:40;10.50;99.90
18456;DHT22;9357;49.900;8.208;2023-03-21T07:02:14;10.50;99.90
18456;DHT22;9357;49.900;8.208;2023-03-21T07:03:47;10.50;99.90
18456;DHT22;9357;49.900;8.208;2023-03-21T07:05:20;10.60;99.90
18456;DHT22;9357;49.900;8.208;2023-03-21T07:06:52;10.60;99.90
18456;DHT22;9357;49.900;8.208;2023-03-21T07:08:26;10.60;99.90
18456;DHT22;9357;49.900;8.208;2023-03-21T07:09:58;10.60;99.90
18456;DHT22;9357;49.900;8.208;2023-03-21T07:11:32;10.60;99.90
18456;DHT22;9357;49.900;8.208;2023-03-21T07:13:04;10.70;99.90
18456;DHT22;9357;49.900;8.208;2023-03-21T07:14:37;10.70;99.90
18456;DHT22;9357;49.900;8.208;2023-03-21T07:16:10;10.70;99.90
18456;DHT22;9357;49.900;8.208;2023-03-21T07:17:44;10.70;99.90
18456;DHT22;9357;49.900;8.208;2023-03-21T07:19:17;10.80;99.90
18456;DHT22;9357;49.900;8.208;2023-03-21T07:20:50;10.80;99.90
18456;DHT22;9357;49.900;8.208;2023-03-21T07:22:23;10.80;99.90
18456;DHT22;9357;49.900;8.208;2023-03-21T07:23:55;10.80;99.90
18456;DHT22;9357;49.900;8.208;2023-03-21T07:25:28;10.90;99.90
18456;DHT22;9357;49.900;8.208;2023-03-21T07:27:01;10.90;99.90
18456;DHT22;9357;49.900;8.208;2023-03-21T07:28:35;10.90;99.90
18456;DHT22;9357;49.900;8.208;2023-03-21T07:30:09;11.00;99.90
18456;DHT22;9357;49.900;8.208;2023-03-21T07:31:42;11.00;99.90
18456;DHT22;9357;49.900;8.208;2023-03-21T07:33:16;11.10;99.90
18456;DHT22;9357;49.900;8.208;2023-03-21T07:34:49;11.20;99.90
18456;DHT22;9357;49.900;8.208;2023-03-21T07:36:21;11.20;99.90
18456;DHT22;9357;49.900;8.208;2023-03-21T07:37:54;11.30;99.90
18456;DHT22;9357;49.900;8.208;2023-03-21T07:39:27;11.40;99.90
18456;DHT22;9357;49.900;8.208;2023-03-21T07:41:00;11.40;99.90
18456;DHT22;9357;49.900;8.208;2023-03-21T07:42:33;11.50;99.90
18456;DHT22;9357;49.900;8.208;2023-03-21T07:44:05;11.60;99.90
18456;DHT22;9357;49.900;8.208;2023-03-21T07:45:38;11.60;99.90
18456;DHT22;9357;49.900;8.208;2023-03-21T07:47:11;11.70;99.90
18456;DHT22;9357;49.900;8.208;2023-03-21T07:48:45;11.80;99.90
18456;DHT22;9357;49.900;8.208;2023-03-21T07:50:18;11.90;99.90
18456;DHT22;9357;49.900;8.208;2023-03-21T07:51:51;12.00;99.90
18456;DHT22;9357;49.900;8.208;2023-03-21T07:53:24;12.10;99.90
18456;DHT22;9357;49.900;8.208;2023-03-21T07:54:57;12.20;99.90
18456;DHT22;9357;49.900;8.208;2023-03-21T07:56:29;12.20;99.90
18456;DHT22;9357;49.900;8.208;2023-03-21T07:58:03;12.30;99.90
18456;DHT22;9357;49.900;8.208;2023-03-21T07:59:36;12.40;99.90
18456;DHT22;9357;49.900;8.208;2023-03-21T08:01:09;12.40;99.90
18456;DHT22;9357;49.900;8.208;2023-03-21T08:02:42;12.50;99.90
18456;DHT22;9357;49.900;8.208;2023-03-21T08:04:16;12.50;99.90
18456;DHT22;9357;49.900;8.208;2023-03-21T08:05:49;12.50;99.90
18456;DHT22;9357;49.900;8.208;2023-03-21T08:07:22;12.60;99.90
18456;DHT22;9357;49.900;8.208;2023-03-21T08:08:54;12.60;99.90
18456;DHT22;9357;49.900;8.208;2023-03-21T08:10:27;12.50;99.90
18456;DHT22;9357;49.900;8.208;2023-03-21T08:12:00;12.60;99.90
18456;DHT22;9357;49.900;8.208;2023-03-21T08:13:33;12.60;99.90
18456;DHT22;9357;49.900;8.208;2023-03-21T08:15:07;12.60;99.90
18456;DHT22;9357;49.900;8.208;2023-03-21T08:16:40;12.50;99.90
18456;DHT22;9357;49.900;8.208;2023-03-21T08:18:12;12.60;99.90
18456;DHT22;9357;49.900;8.208;2023-03-21T08:19:47;12.60;99.90
18456;DHT22;9357;49.900;8.208;2023-03-21T08:21:19;12.60;99.90
18456;DHT22;9357;49.900;8.208;2023-03-21T08:22:52;12.60;99.90
18456;DHT22;9357;49.900;8.208;2023-03-21T08:24:25;12.70;99.90
18456;DHT22;9357;49.900;8.208;2023-03-21T08:25:58;12.70;99.90
18456;DHT22;9357;49.900;8.208;2023-03-21T08:27:32;12.80;99.90
18456;DHT22;9357;49.900;8.208;2023-03-21T08:29:05;12.80;99.90
18456;DHT22;9357;49.900;8.208;2023-03-21T08:30:38;12.80;99.90
18456;DHT22;9357;49.900;8.208;2023-03-21T08:32:11;12.90;99.90
18456;DHT22;9357;49.900;8.208;2023-03-21T08:33:44;13.00;99.90
18456;DHT22;9357;49.900;8.208;2023-03-21T08:35:20;13.00;99.90
18456;DHT22;9357;49.900;8.208;2023-03-21T08:36:55;13.10;99.90
18456;DHT22;9357;49.900;8.208;2023-03-21T08:38:28;13.10;99.90
18456;DHT22;9357;49.900;8.208;2023-03-21T08:40:05;13.10;99.90
18456;DHT22;9357;49.900;8.208;2023-03-21T08:41:40;13.10;99.90
18456;DHT22;9357;49.900;8.208;2023-03-21T08:43:13;13.20;99.90
18456;DHT22;9357;49.900;8.208;2023-03-21T08:44:45;13.10;99.90
18456;DHT22;9357;49.900;8.208;2023-03-21T08:46:18;13.10;99.90
18456;DHT22;9357;49.900;8.208;2023-03-21T08:47:51;13.20;99.90
18456;DHT22;9357;49.900;8.208;2023-03-21T08:49:24;13.10;99.90
18456;DHT22;9357;49.900;8.208;2023-03-21T08:51:00;13.10;99.90
18456;DHT22;9357;49.900;8.208;2023-03-21T08:52:33;13.00;99.90
18456;DHT22;9357;49.900;8.208;2023-03-21T08:54:06;13.00;99.90
18456;DHT22;9357;49.900;8.208;2023-03-21T08:55:39;13.00;99.90
18456;DHT22;9357;49.900;8.208;2023-03-21T08:57:11;13.00;99.90
18456;DHT22;9357;49.900;8.208;2023-03-21T08:58:44;13.00;99.90
18456;DHT22;9357;49.900;8.208;2023-03-21T09:00:18;13.00;99.90
18456;DHT22;9357;49.900;8.208;2023-03-21T09:01:51;13.00;99.90
18456;DHT22;9357;49.900;8.208;2023-03-21T09:03:24;13.00;99.90
18456;DHT22;9357;49.900;8.208;2023-03-21T09:04:57;12.90;99.90
18456;DHT22;9357;49.900;8.208;2023-03-21T09:06:31;12.90;99.90
18456;DHT22;9357;49.900;8.208;2023-03-21T09:08:04;12.90;99.90
18456;DHT22;9357;49.900;8.208;2023-03-21T09:09:37;12.90;99.90
18456;DHT22;9357;49.900;8.208;2023-03-21T09:11:10;12.80;99.90
18456;DHT22;9357;49.900;8.208;2023-03-21T09:12:43;12.80;99.90
18456;DHT22;9357;49.900;8.208;2023-03-21T09:14:15;12.80;99.90
18456;DHT22;9357;49.900;8.208;2023-03-21T09:15:49;12.80;99.90
18456;DHT22;9357;49.900;8.208;2023-03-21T09:17:23;12.80;99.90
18456;DHT22;9357;49.900;8.208;2023-03-21T09:18:56;12.80;99.90
18456;DHT22;9357;49.900;8.208;2023-03-21T09:20:29;12.80;99.90
18456;DHT22;9357;49.900;8.208;2023-03-21T09:22:04;12.80;99.90
18456;DHT22;9357;49.900;8.208;2023-03-21T09:23:42;12.80;99.90
18456;DHT22;9357;49.900;8.208;2023-03-21T09:25:17;12.80;99.90
18456;DHT22;9357;49.900;8.208;2023-03-21T09:26:51;12.80;99.90
18456;DHT22;9357;49.900;8.208;2023-03-21T09:28:24;12.90;99.90
18456;DHT22;9357;49.900;8.208;2023-03-21T09:29:57;12.90;99.90
18456;DHT22;9357;49.900;8.208;2023-03-21T09:31:32;12.90;99.90
18456;DHT22;9357;49.900;8.208;2023-03-21T09:33:05;12.80;99.90
18456;DHT22;9357;49.900;8.208;2023-03-21T09:34:43;12.90;99.90
18456;DHT22;9357;49.900;8.208;2023-03-21T09:36:17;12.90;99.90
18456;DHT22;9357;49.900;8.208;2023-03-21T09:37:54;12.90;99.90
18456;DHT22;9357;49.900;8.208;2023-03-21T09:39:28;13.00;99.90
18456;DHT22;9357;49.900;8.208;2023-03-21T09:41:07;13.10;99.90
18456;DHT22;9357;49.900;8.208;2023-03-21T09:42:50;13.10;99.90
18456;DHT22;9357;49.900;8.208;2023-03-21T09:44:37;13.20;99.90
18456;DHT22;9357;49.900;8.208;2023-03-21T09:46:18;13.20;99.90
18456;DHT22;9357;49.900;8.208;2023-03-21T09:47:52;13.20;99.90
18456;DHT22;9357;49.900;8.208;2023-03-21T09:49:30;13.20;99.90
18456;DHT22;9357;49.900;8.208;2023-03-21T09:51:08;13.20;99.90
18456;DHT22;9357;49.900;8.208;2023-03-21T09:52:45;13.20;99.90
18456;DHT22;9357;49.900;8.208;2023-03-21T09:54:24;13.20;99.90
18456;DHT22;9357;49.900;8.208;2023-03-21T09:55:58;13.10;99.90
18456;DHT22;9357;49.900;8.208;2023-03-21T09:57:36;13.10;99.90
18456;DHT22;9357;49.900;8.208;2023-03-21T09:59:20;13.10;99.90
18456;DHT22;9357;49.900;8.208;2023-03-21T10:00:58;13.20;99.90
18456;DHT22;9357;49.900;8.208;2023-03-21T10:02:35;13.10;99.90
18456;DHT22;9357;49.900;8.208;2023-03-21T10:04:12;13.10;99.90
18456;DHT22;9357;49.900;8.208;2023-03-21T10:05:47;13.10;99.90
18456;DHT22;9357;49.900;8.208;2023-03-21T10:07:20;13.10;99.90
18456;DHT22;9357;49.900;8.208;2023-03-21T10:08:56;13.10;99.90
18456;DHT22;9357;49.900;8.208;2023-03-21T10:10:34;13.10;99.90
18456;DHT22;9357;49.900;8.208;2023-03-21T10:12:13;13.10;99.90
18456;DHT22;9357;49.900;8.208;2023-03-21T10:13:53;13.10;99.90
18456;DHT22;9357;49.900;8.208;2023-03-21T10:15:27;13.20;99.90
18456;DHT22;9357;49.900;8.208;2023-03-21T10:17:03;13.20;99.90
18456;DHT22;9357;49.900;8.208;2023-03-21T10:18:42;13.20;99.90
18456;DHT22;9357;49.900;8.208;2023-03-21T10:20:18;13.20;99.90